Latest Weather Observations for Albury

IDN60801

Issued at 9:03 am EDT Tuesday 26 March 2019 (issued every 10 minutes, with the page automatically refreshed every 10 minutes)

About weather observations | Map of weather stations | Latest weather observations for NSW | Other Formats
Station Details ID: 072160 Name: ALBURY AIRPORT AWS Lat: -36.07 Lon: 146.95 Height: 163.5 m
Data from the previous 72 hours. | See also: Recent months at Albury
Date/Time
EDT
Temp
°C
App
Temp
°C
Dew
Point
°C
Rel
Hum
%
Delta-T
°C
Wind Press
QNH
hPa
Press
MSL
hPa
Rain since
9am
mm
Dir  Spd
km/h
Gust
km/h
Spd
kts
Gust
kts
26/09:00am 11.8 8.2 4.8 62 3.2 WNW 13 15 7 8 1019.7 1019.2 2.0
26/08:30am 10.8 8.3 4.5 65 2.9 WNW 7 11 4 6 1019.8 1019.3 2.4
26/08:00am 9.3 6.8 4.7 73 2.1 N 7 9 4 5 1019.1 1018.6 2.4
26/07:30am 7.8 5.3 3.5 74 1.9 NNW 6 9 3 5 1018.8 1018.3 2.4
26/07:00am 8.9 6.4 3.7 70 2.3 N 6 11 3 6 1018.3 1017.8 2.4
26/06:30am 8.9 6.2 3.7 70 2.3 N 7 9 4 5 1017.8 1017.3 2.4
26/06:00am 9.2 5.7 3.6 68 2.4 N 11 13 6 7 1017.5 1017.0 2.4
26/05:30am 8.8 5.7 3.8 71 2.2 NNW 9 11 5 6 1017.1 1016.5 2.4
26/05:00am 9.8 6.6 3.3 64 2.8 W 9 15 5 8 1016.8 1016.2 2.4
26/04:30am 10.0 6.9 3.5 64 2.9 W 9 13 5 7 1016.6 1016.0 2.4
26/04:00am 10.3 6.5 3.8 64 2.9 WNW 13 19 7 10 1016.5 1015.9 2.4
26/03:30am 10.5 7.5 4.0 64 2.9 NNW 9 11 5 6 1016.4 1015.8 2.4
26/03:00am 10.0 7.7 5.0 71 2.3 N 6 7 3 4 1016.5 1015.9 2.4
26/02:30am 10.5 8.0 4.0 64 2.9 NW 6 7 3 4 1016.4 1015.8 2.4
26/02:00am 11.5 9.0 4.5 62 3.2 NNW 7 9 4 5 1016.3 1015.7 2.4
26/01:30am 11.8 9.2 4.1 59 3.5 WNW 7 11 4 6 1016.2 1015.6 2.4
26/01:00am 12.0 9.1 4.5 60 3.4 WNW 9 13 5 7 1016.1 1015.5 2.4
26/12:30am 12.6 9.4 5.1 60 3.5 NW 11 13 6 7 1016.0 1015.4 2.4
26/12:00am 12.9 9.7 5.1 59 3.6 WNW 11 19 6 10 1015.9 1015.3 2.4
 
Date/Time
EDT
Temp
°C
App
Temp
°C
Dew
Point
°C
Rel
Hum
%
Delta-T
°C
Wind Press
QNH
hPa
Press
MSL
hPa
Rain since
9am
mm
Dir  Spd
km/h
Gust
km/h
Spd
kts
Gust
kts
25/11:30pm 13.3 9.8 5.5 59 3.7 WNW 13 19 7 10 1016.0 1015.4 2.4
25/11:00pm 13.5 10.4 5.4 58 3.8 WNW 11 15 6 8 1015.8 1015.2 2.4
25/10:30pm 13.5 10.4 5.4 58 3.8 W 11 17 6 9 1015.4 1014.9 2.4
25/10:00pm 13.6 11.4 5.5 58 3.8 W 6 11 3 6 1015.3 1014.8 2.4
25/09:30pm 14.6 12.4 5.1 53 4.5 NW 6 9 3 5 1014.6 1014.1 2.4
25/09:00pm 14.9 12.1 5.1 52 4.7 WNW 9 13 5 7 1013.9 1013.4 2.4
25/08:30pm 15.3 11.7 5.2 51 4.8 WNW 13 20 7 11 1013.3 1012.8 2.4
25/08:00pm 15.3 12.5 5.2 51 4.8 W 9 13 5 7 1012.8 1012.3 2.4
25/07:30pm 16.6 13.1 5.3 47 5.5 W 13 19 7 10 1012.3 1011.8 2.4
25/07:00pm 17.9 13.1 4.8 42 6.3 W 19 26 10 14 1011.8 1011.2 2.4
25/06:30pm 18.6 12.8 4.4 39 6.8 W 24 37 13 20 1011.5 1010.9 2.4
25/06:00pm 19.3 14.0 5.0 39 7.0 WSW 22 37 12 20 1011.2 1010.6 2.4
25/05:30pm 19.1 14.0 5.9 42 6.6 W 22 32 12 17 1010.9 1010.3 2.4
25/05:00pm 19.2 12.4 5.3 40 6.8 W 30 39 16 21 1011.0 1010.4 2.4
25/04:30pm 19.7 13.4 5.7 40 7.0 W 28 41 15 22 1010.8 1010.2 2.4
25/04:00pm 19.3 12.9 6.8 44 6.3 W 30 39 16 21 1010.8 1010.2 2.4
25/03:30pm 19.2 14.2 7.9 48 5.8 W 24 39 13 21 1010.5 1009.9 2.4
25/03:00pm 19.2 13.8 8.2 49 5.7 W 26 37 14 20 1010.5 1009.9 2.4
25/02:30pm 18.6 13.3 9.7 56 4.7 W 28 39 15 21 1010.6 1010.0 2.2
25/02:00pm 19.0 14.2 8.9 52 5.3 WSW 24 35 13 19 1010.6 1010.0 2.2
25/01:30pm 17.9 11.6 9.8 59 4.3 WNW 33 46 18 25 1010.6 1010.0 2.2
25/01:00pm 18.6 15.1 10.9 61 4.2 W 20 33 11 18 1010.3 1009.7 2.2
25/12:30pm 17.9 14.5 11.2 65 3.7 W 20 32 11 17 1010.1 1009.5 2.2
25/12:00pm 17.6 15.0 11.9 69 3.2 W 17 30 9 16 1009.8 1009.2 2.2
25/11:30am 17.1 13.9 12.0 72 2.8 W 20 30 11 16 1009.5 1008.9 2.2
25/11:00am 17.0 13.1 12.1 73 2.7 W 24 33 13 18 1009.2 1008.7 2.2
25/10:31am 16.8 13.7 13.3 80 2.0 W 22 32 12 17 1009.0 1008.5 2.2
25/10:30am 16.8 13.8 13.7 82 1.8 W 22 32 12 17 1009.0 1008.5 2.2
25/10:15am 16.6 14.9 15.8 95 0.5 W 19 26 10 14 1009.0 1008.5 2.2
25/10:04am 16.4 14.3 15.3 93 0.6 W 20 30 11 16 1008.8 1008.3 2.2
25/10:00am 16.4 13.9 15.1 92 0.8 W 22 30 12 16 1008.8 1008.3 2.0
25/09:30am 16.7 14.3 15.4 92 0.8 WNW 22 28 12 15 1008.0 1007.5 1.8
25/09:22am 16.8 14.4 15.5 92 0.8 W 22 32 12 17 1007.7 1007.2 1.8
25/09:00am 17.9 16.1 16.9 94 0.6 WNW 22 30 12 16 1007.5 1007.0 10.4
25/08:58am 18.4 17.4 17.9 97 0.3 NW 20 30 11 16 1007.4 1006.9 10.0
25/08:39am 18.2 16.7 16.7 91 0.9 NW 20 32 11 17 1007.1 1006.6 7.4
25/08:33am 19.0 18.6 17.1 89 1.2 NW 15 30 8 16 1007.2 1006.7 4.4
25/08:30am 19.4 19.4 18.2 93 0.7 NNW 15 24 8 13 1007.1 1006.6 2.8
25/08:00am 19.8 18.0 17.8 88 1.2 NNW 24 33 13 18 1006.7 1006.1 1.8
25/07:30am 20.1 18.2 17.7 86 1.5 NNW 24 35 13 19 1006.3 1005.7 1.8
25/07:00am 20.0 18.5 17.6 86 1.5 NNW 22 33 12 18 1006.2 1005.6 1.8
25/06:58am 20.0 18.5 17.6 86 1.5 NNW 22 33 12 18 1006.2 1005.6 1.8
25/06:35am 20.2 17.8 17.4 84 1.7 NNW 26 35 14 19 1006.4 1005.8 1.4
25/06:30am 20.2 17.7 17.2 83 1.8 NNW 26 33 14 18 1006.3 1005.7 1.4
25/06:00am 20.2 17.7 17.2 83 1.8 NNW 26 33 14 18 1006.1 1005.5 1.4
25/05:30am 20.3 18.3 17.5 84 1.7 NNW 24 35 13 19 1006.2 1005.6 1.4
25/05:10am 20.9 18.8 17.1 79 2.3 NNW 24 37 13 20 1006.0 1005.4 1.0
25/05:00am 20.8 18.7 17.2 80 2.2 NNW 24 33 13 18 1005.8 1005.2 1.0
25/04:39am 20.7 19.3 17.1 80 2.2 NW 20 28 11 15 1005.8 1005.2 1.0
25/04:30am 20.8 19.5 17.2 80 2.2 NW 20 28 11 15 1006.0 1005.4 1.0
25/04:15am 20.8 19.5 17.2 80 2.2 NNW 20 28 11 15 1006.0 1005.4 1.0
25/04:00am 21.0 17.8 17.2 79 2.3 NNW 30 50 16 27 1005.8 1005.2 1.0
25/03:53am 21.0 18.2 17.2 79 2.3 N 28 50 15 27 1005.7 1005.1 1.0
25/03:30am 20.7 19.0 17.1 80 2.2 NNW 22 33 12 18 1006.1 1005.5 1.0
25/03:00am 20.7 19.3 17.1 80 2.2 NNW 20 33 11 18 1006.6 1006.0 1.0
25/02:30am 20.8 19.4 17.0 79 2.3 NNW 20 28 11 15 1006.5 1005.9 1.0
25/02:02am 20.8 19.5 17.2 80 2.2 NNW 20 30 11 16 1006.6 1006.0 1.0
25/02:00am 20.8 19.5 17.2 80 2.2 NNW 20 30 11 16 1006.8 1006.3 1.0
25/01:30am 20.9 19.7 17.1 79 2.3 NNW 19 28 10 15 1007.0 1006.5 1.0
25/01:25am 21.0 19.3 17.2 79 2.3 NNW 22 30 12 16 1007.3 1006.8 1.0
25/01:00am 21.0 19.9 17.2 79 2.3 N 19 26 10 14 1007.3 1006.8 1.0
25/12:30am 21.0 20.3 17.4 80 2.2 NNW 17 28 9 15 1007.9 1007.4 1.0
25/12:00am 20.7 19.6 17.7 83 1.9 N 20 28 11 15 1008.1 1007.6 1.0
 
Date/Time
EDT
Temp
°C
App
Temp
°C
Dew
Point
°C
Rel
Hum
%
Delta-T
°C
Wind Press
QNH
hPa
Press
MSL
hPa
Rain since
9am
mm
Dir  Spd
km/h
Gust
km/h
Spd
kts
Gust
kts
24/11:30pm 20.5 19.2 17.3 82 2.0 N 20 33 11 18 1008.3 1007.8 1.0
24/11:00pm 21.8 19.3 17.0 74 3.0 N 26 37 14 20 1008.7 1008.2 0.2
24/10:30pm 22.3 20.8 16.8 71 3.4 NNW 20 33 11 18 1008.5 1008.0 0.2
24/10:00pm 22.6 20.6 16.4 68 3.8 NNW 22 33 12 18 1008.8 1008.3 0.2
24/09:30pm 23.3 19.6 16.1 64 4.4 NNW 30 48 16 26 1008.8 1008.3 0.2
24/09:29pm 23.3 20.0 16.1 64 4.4 NNW 28 48 15 26 1008.9 1008.4 0.2
24/09:00pm 23.3 20.9 16.4 65 4.2 NNW 24 35 13 19 1008.9 1008.4 0.2
24/08:30pm 24.0 21.6 16.3 62 4.7 NNW 24 37 13 20 1008.7 1008.2 0.2
24/08:00pm 24.3 22.0 16.6 62 4.8 NNW 24 39 13 21 1008.3 1007.8 0.2
24/07:30pm 23.3 20.9 17.3 69 3.7 NNW 26 35 14 19 1008.1 1007.6 0.2
24/07:00pm 25.0 23.4 15.9 57 5.6 N 19 30 10 16 1008.1 1007.6 0.2
24/06:30pm 25.4 23.8 16.0 56 5.8 NNW 19 28 10 15 1008.3 1007.8 0.2
24/06:00pm 25.4 23.8 16.0 56 5.8 N 19 30 10 16 1008.2 1007.7 0.2
24/05:30pm 25.5 24.4 16.4 57 5.6 N 17 26 9 14 1008.2 1007.7 0.2
24/05:00pm 25.6 23.4 15.9 55 6.0 N 22 33 12 18 1008.7 1008.2 0.2
24/04:30pm 26.0 23.9 16.3 55 6.0 N 22 32 12 17 1008.8 1008.3 0.2
24/04:00pm 26.3 24.3 15.4 51 6.7 N 20 30 11 16 1009.0 1008.5 0.2
24/03:30pm 26.6 25.1 15.3 50 6.9 N 17 24 9 13 1009.6 1009.0 0.2
24/03:00pm 26.6 24.9 16.2 52 6.4 NNE 20 37 11 20 1009.7 1009.1 0.2
24/02:30pm 26.2 24.1 15.3 51 6.6 NNE 20 26 11 14 1010.2 1009.6 0.2
24/02:00pm 25.2 24.7 15.8 56 5.8 NNE 13 19 7 10 1010.7 1010.1 0.2
24/01:30pm 25.3 24.3 15.6 55 5.9 NNE 15 22 8 12 1011.3 1010.7 0.2
24/01:00pm 25.4 24.8 15.7 55 5.9 NE 13 22 7 12 1011.6 1011.0 0.2
24/12:30pm 24.5 23.8 15.4 57 5.5 NNE 13 19 7 10 1011.9 1011.3 0.2
24/12:00pm 22.9 21.9 14.5 59 5.0 NNE 13 19 7 10 1012.7 1012.2 0.0
24/11:30am 22.9 21.6 14.7 60 4.9 NE 15 24 8 13 1012.9 1012.4 0.0
24/11:00am 22.0 20.8 13.9 60 4.7 NNE 13 19 7 10 1013.5 1013.0 0.0
24/10:30am 22.0 20.7 14.9 64 4.2 NE 15 19 8 10 1014.0 1013.5 0.0
24/10:00am 20.5 19.8 15.5 73 3.0 NE 13 19 7 10 1013.9 1013.4 0.0
24/09:30am 19.3 19.7 15.4 78 2.3 ENE 7 9 4 5 1014.2 1013.7 0.0
24/09:00am 18.7 19.9 14.8 78 2.3 NNE 2 6 1 3 1014.0 1013.5 1.2
24/08:30am 18.1 18.9 15.9 87 1.3 WSW 6 7 3 4 1013.8 1013.3 1.2
24/08:00am 18.1 19.5 15.4 84 1.6 NE 2 7 1 4 1013.1 1012.6 1.2
24/07:30am 17.8 17.9 15.4 86 1.4 NE 9 13 5 7 1013.0 1012.5 1.2
24/07:00am 17.9 18.3 16.2 90 1.0 NNE 9 13 5 7 1013.1 1012.6 1.2
24/06:30am 18.1 19.5 17.3 95 0.5 NNE 6 9 3 5 1013.1 1012.6 1.2
24/06:00am 18.3 19.4 17.1 93 0.7 N 7 9 4 5 1012.6 1012.1 1.0
24/05:30am 18.3 20.6 16.8 91 0.9 CALM 0 0 0 0 1012.7 1012.2 0.6
24/05:00am 18.3 20.3 16.1 87 1.3 CALM 0 4 0 2 1012.4 1011.9 0.4
24/04:30am 18.6 19.3 16.0 85 1.6 SE 7 9 4 5 1011.7 1011.1 0.4
24/04:00am 19.3 21.1 15.6 79 2.2 CALM 0 0 0 0 1012.2 1011.7 0.4
24/03:30am 19.0 19.8 15.9 82 1.9 N 6 11 3 6 1012.0 1011.4 0.4
24/03:00am 18.9 20.6 16.1 84 1.7 N 2 7 1 4 1011.4 1010.8 0.4
24/02:30am 18.8 20.9 16.2 85 1.6 CALM 0 0 0 0 1011.4 1010.8 0.4
24/02:00am 18.9 21.0 16.3 85 1.6 CALM 0 0 0 0 1011.2 1010.6 0.4
24/01:30am 19.2 21.2 16.1 82 1.9 CALM 0 0 0 0 1011.1 1010.5 0.4
24/01:00am 18.5 19.6 16.5 88 1.2 W 6 9 3 5 1011.0 1010.4 0.4
24/12:30am 18.5 20.8 16.7 89 1.1 CALM 0 0 0 0 1010.9 1010.3 0.4
24/12:00am 18.6 20.5 15.8 84 1.7 CALM 0 0 0 0 1011.2 1010.6 0.4
 
Date/Time
EDT
Temp
°C
App
Temp
°C
Dew
Point
°C
Rel
Hum
%
Delta-T
°C
Wind Press
QNH
hPa
Press
MSL
hPa
Rain since
9am
mm
Dir  Spd
km/h
Gust
km/h
Spd
kts
Gust
kts
23/11:30pm 18.9 20.6 15.2 79 2.2 CALM 0 0 0 0 1011.3 1010.7 0.4
23/11:00pm 19.5 21.5 16.0 80 2.1 CALM 0 0 0 0 1011.2 1010.6 0.4
23/10:30pm 19.9 22.0 16.2 79 2.2 CALM 0 0 0 0 1011.1 1010.5 0.4
23/10:00pm 21.1 22.9 15.6 71 3.3 CALM 0 0 0 0 1011.2 1010.6 0.4
23/09:30pm 21.5 23.4 15.8 70 3.4 CALM 0 0 0 0 1011.0 1010.4 0.4
23/09:00pm 21.6 23.9 16.8 74 2.9 CALM 0 0 0 0 1010.5 1009.9 0.4
23/08:30pm 21.5 22.4 16.2 72 3.2 ESE 6 7 3 4 1010.3 1009.7 0.4
23/08:00pm 22.0 22.8 16.3 70 3.5 SE 7 13 4 7 1009.9 1009.3 0.4
23/07:30pm 22.9 23.6 15.7 64 4.4 SE 6 9 3 5 1009.8 1009.2 0.4
23/07:00pm 24.1 24.1 15.3 58 5.3 ESE 9 13 5 7 1009.7 1009.1 0.4
23/06:30pm 25.7 25.5 14.8 51 6.6 E 9 15 5 8 1009.6 1009.0 0.4
23/06:00pm 26.5 25.0 15.2 49 6.9 ENE 17 22 9 12 1009.4 1008.8 0.4
23/05:30pm 25.7 23.9 14.5 50 6.7 NE 17 20 9 11 1009.4 1008.8 0.4
23/05:00pm 26.4 25.0 14.5 48 7.2 ENE 15 24 8 13 1009.4 1008.8 0.4
23/04:30pm 25.4 25.0 15.1 53 6.2 E 11 15 6 8 1009.6 1009.0 0.2
23/04:00pm 24.5 23.6 14.9 55 5.8 E 13 19 7 10 1009.6 1009.0 0.2
23/03:30pm 23.9 23.3 15.7 60 5.0 E 13 20 7 11 1009.9 1009.3 0.2
23/03:00pm 22.5 22.8 16.1 67 3.9 SSE 9 11 5 6 1010.4 1009.8 0.2
23/02:30pm 22.2 23.1 16.0 68 3.8 SE 6 9 3 5 1010.7 1010.1 0.2
23/02:00pm 21.8 22.9 16.5 72 3.2 E 6 13 3 7 1011.0 1010.4 0.2
23/01:30pm 20.7 20.6 16.1 75 2.8 SE 11 13 6 7 1011.6 1011.0 0.2
23/01:00pm 20.7 21.0 16.9 79 2.3 ESE 11 17 6 9 1011.5 1010.9 0.2
23/12:30pm 19.6 19.8 16.8 84 1.7 SE 11 15 6 8 1012.2 1011.7 0.2
23/12:00pm 19.4 19.0 16.2 82 1.9 E 13 19 7 10 1012.9 1012.4 0.2
23/11:30am 19.2 20.4 16.8 86 1.5 ESE 6 9 3 5 1014.0 1013.5 0.2
23/11:00am 18.8 18.6 15.7 82 1.8 SE 11 19 6 10 1013.3 1012.8 0.0
23/10:30am 18.2 16.6 14.9 81 1.9 ESE 17 22 9 12 1012.9 1012.4 0.0
23/10:00am 18.6 19.7 15.5 82 1.8 SSE 4 9 2 5 1014.3 1013.8 0.0
23/09:30am 17.9 18.5 15.3 85 1.5 W 6 9 3 5 1013.7 1013.2 0.0

Other formats

Comma delimited format used in spreadsheet applications
http://www.bom.gov.au/fwo/IDN60801/IDN60801.95896.axf

JavaScript Object Notation format (JSON) in row-major order
http://www.bom.gov.au/fwo/IDN60801/IDN60801.95896.json

Data quality

Most of these data are generated automatically and are frequently updated. Quality checks on data are not normally performed. It is possible for incorrect values to appear. Refer to information at About Latest Weather Observations and please check the disclaimer before using these data.